sensor_id;sensor_type;location;lat;lon;timestamp;P1;durP1;ratioP1;P2;durP2;ratioP2
75894;SDS011;64573;50.328;15.014;2023-02-28T00:00:38;13.93;;;6.05;;
75894;SDS011;64573;50.328;15.014;2023-02-28T00:03:04;12.63;;;6.65;;
75894;SDS011;64573;50.328;15.014;2023-02-28T00:05:30;10.50;;;4.10;;
75894;SDS011;64573;50.328;15.014;2023-02-28T00:07:55;12.35;;;5.95;;
75894;SDS011;64573;50.328;15.014;2023-02-28T00:10:26;10.48;;;4.95;;
75894;SDS011;64573;50.328;15.014;2023-02-28T00:12:53;9.02;;;4.35;;
75894;SDS011;64573;50.328;15.014;2023-02-28T00:15:22;10.38;;;5.20;;
75894;SDS011;64573;50.328;15.014;2023-02-28T00:17:48;12.93;;;5.55;;
75894;SDS011;64573;50.328;15.014;2023-02-28T00:20:14;11.77;;;5.28;;
75894;SDS011;64573;50.328;15.014;2023-02-28T00:22:42;12.43;;;5.78;;
75894;SDS011;64573;50.328;15.014;2023-02-28T00:25:09;14.50;;;6.43;;
75894;SDS011;64573;50.328;15.014;2023-02-28T00:27:36;9.65;;;4.65;;
75894;SDS011;64573;50.328;15.014;2023-02-28T00:30:03;9.38;;;4.90;;
75894;SDS011;64573;50.328;15.014;2023-02-28T00:32:30;11.05;;;4.55;;
75894;SDS011;64573;50.328;15.014;2023-02-28T00:34:55;10.77;;;4.68;;
75894;SDS011;64573;50.328;15.014;2023-02-28T00:37:21;12.32;;;5.15;;
75894;SDS011;64573;50.328;15.014;2023-02-28T00:39:46;8.63;;;4.38;;
75894;SDS011;64573;50.328;15.014;2023-02-28T00:42:12;11.43;;;5.55;;
75894;SDS011;64573;50.328;15.014;2023-02-28T00:44:37;11.35;;;4.75;;
75894;SDS011;64573;50.328;15.014;2023-02-28T00:47:02;10.10;;;4.90;;
75894;SDS011;64573;50.328;15.014;2023-02-28T00:49:28;10.70;;;5.03;;
75894;SDS011;64573;50.328;15.014;2023-02-28T00:51:54;7.70;;;3.92;;
75894;SDS011;64573;50.328;15.014;2023-02-28T00:54:20;11.65;;;5.43;;
75894;SDS011;64573;50.328;15.014;2023-02-28T00:56:45;11.48;;;4.95;;
75894;SDS011;64573;50.328;15.014;2023-02-28T00:59:11;6.00;;;3.47;;
75894;SDS011;64573;50.328;15.014;2023-02-28T01:01:38;8.85;;;3.80;;
75894;SDS011;64573;50.328;15.014;2023-02-28T01:04:03;8.63;;;3.80;;
75894;SDS011;64573;50.328;15.014;2023-02-28T01:06:29;10.88;;;5.30;;
75894;SDS011;64573;50.328;15.014;2023-02-28T01:08:55;9.55;;;3.65;;
75894;SDS011;64573;50.328;15.014;2023-02-28T01:11:20;7.80;;;4.57;;
75894;SDS011;64573;50.328;15.014;2023-02-28T01:13:45;11.45;;;3.92;;
75894;SDS011;64573;50.328;15.014;2023-02-28T01:16:12;8.30;;;4.13;;
75894;SDS011;64573;50.328;15.014;2023-02-28T01:18:37;8.80;;;4.18;;
75894;SDS011;64573;50.328;15.014;2023-02-28T01:21:04;8.95;;;4.88;;
75894;SDS011;64573;50.328;15.014;2023-02-28T01:23:31;11.80;;;5.32;;
75894;SDS011;64573;50.328;15.014;2023-02-28T01:25:56;7.75;;;3.80;;
75894;SDS011;64573;50.328;15.014;2023-02-28T01:28:21;7.85;;;4.15;;
75894;SDS011;64573;50.328;15.014;2023-02-28T01:30:47;12.35;;;5.10;;
75894;SDS011;64573;50.328;15.014;2023-02-28T01:33:16;9.88;;;4.97;;
75894;SDS011;64573;50.328;15.014;2023-02-28T01:35:41;11.15;;;5.53;;
75894;SDS011;64573;50.328;15.014;2023-02-28T01:38:06;7.25;;;4.18;;
75894;SDS011;64573;50.328;15.014;2023-02-28T01:40:32;9.80;;;3.92;;
75894;SDS011;64573;50.328;15.014;2023-02-28T01:42:57;7.63;;;4.28;;
75894;SDS011;64573;50.328;15.014;2023-02-28T01:45:26;11.05;;;5.15;;
75894;SDS011;64573;50.328;15.014;2023-02-28T01:48:03;9.00;;;4.35;;
75894;SDS011;64573;50.328;15.014;2023-02-28T01:50:34;10.05;;;4.95;;
75894;SDS011;64573;50.328;15.014;2023-02-28T01:53:04;10.77;;;4.80;;
75894;SDS011;64573;50.328;15.014;2023-02-28T01:55:34;11.43;;;5.03;;
75894;SDS011;64573;50.328;15.014;2023-02-28T01:58:01;8.95;;;4.97;;
75894;SDS011;64573;50.328;15.014;2023-02-28T02:00:30;9.70;;;4.80;;
75894;SDS011;64573;50.328;15.014;2023-02-28T02:02:59;7.10;;;3.95;;
75894;SDS011;64573;50.328;15.014;2023-02-28T02:05:32;10.10;;;4.30;;
75894;SDS011;64573;50.328;15.014;2023-02-28T02:08:03;7.20;;;3.60;;
75894;SDS011;64573;50.328;15.014;2023-02-28T02:10:34;8.13;;;4.25;;
75894;SDS011;64573;50.328;15.014;2023-02-28T02:16:32;9.15;;;4.80;;
75894;SDS011;64573;50.328;15.014;2023-02-28T02:30:39;9.80;;;4.97;;
75894;SDS011;64573;50.328;15.014;2023-02-28T02:39:06;9.18;;;4.43;;
75894;SDS011;64573;50.328;15.014;2023-02-28T02:41:46;9.77;;;5.00;;
75894;SDS011;64573;50.328;15.014;2023-02-28T02:44:36;11.20;;;5.65;;
75894;SDS011;64573;50.328;15.014;2023-02-28T02:47:10;10.43;;;5.47;;
75894;SDS011;64573;50.328;15.014;2023-02-28T02:49:40;14.00;;;7.13;;
75894;SDS011;64573;50.328;15.014;2023-02-28T02:52:11;7.75;;;4.43;;
75894;SDS011;64573;50.328;15.014;2023-02-28T02:54:40;13.07;;;4.95;;
75894;SDS011;64573;50.328;15.014;2023-02-28T02:57:12;12.48;;;5.05;;
75894;SDS011;64573;50.328;15.014;2023-02-28T02:59:43;8.20;;;3.88;;
75894;SDS011;64573;50.328;15.014;2023-02-28T03:02:11;15.45;;;6.30;;
75894;SDS011;64573;50.328;15.014;2023-02-28T03:04:43;10.95;;;4.70;;
75894;SDS011;64573;50.328;15.014;2023-02-28T03:07:13;14.30;;;4.93;;
75894;SDS011;64573;50.328;15.014;2023-02-28T03:09:39;9.13;;;4.60;;
75894;SDS011;64573;50.328;15.014;2023-02-28T03:12:04;13.50;;;6.75;;
75894;SDS011;64573;50.328;15.014;2023-02-28T03:19:55;11.45;;;5.57;;
75894;SDS011;64573;50.328;15.014;2023-02-28T03:25:27;11.32;;;6.03;;
75894;SDS011;64573;50.328;15.014;2023-02-28T03:28:30;8.75;;;4.18;;
75894;SDS011;64573;50.328;15.014;2023-02-28T03:31:10;8.43;;;4.05;;
75894;SDS011;64573;50.328;15.014;2023-02-28T03:33:45;11.48;;;5.13;;
75894;SDS011;64573;50.328;15.014;2023-02-28T03:36:20;9.32;;;3.85;;
75894;SDS011;64573;50.328;15.014;2023-02-28T03:39:13;11.50;;;4.93;;
75894;SDS011;64573;50.328;15.014;2023-02-28T03:42:00;7.65;;;3.70;;
75894;SDS011;64573;50.328;15.014;2023-02-28T03:44:32;10.55;;;5.65;;
75894;SDS011;64573;50.328;15.014;2023-02-28T03:47:11;12.02;;;6.57;;
75894;SDS011;64573;50.328;15.014;2023-02-28T03:52:25;12.13;;;4.70;;
75894;SDS011;64573;50.328;15.014;2023-02-28T03:54:56;10.52;;;5.15;;
75894;SDS011;64573;50.328;15.014;2023-02-28T04:00:25;13.27;;;6.53;;
75894;SDS011;64573;50.328;15.014;2023-02-28T04:02:54;10.30;;;6.15;;
75894;SDS011;64573;50.328;15.014;2023-02-28T04:05:20;9.10;;;3.95;;
75894;SDS011;64573;50.328;15.014;2023-02-28T04:07:46;8.23;;;4.55;;
75894;SDS011;64573;50.328;15.014;2023-02-28T04:10:13;11.07;;;4.45;;
75894;SDS011;64573;50.328;15.014;2023-02-28T04:12:39;8.10;;;3.38;;
75894;SDS011;64573;50.328;15.014;2023-02-28T04:15:05;9.75;;;5.00;;
75894;SDS011;64573;50.328;15.014;2023-02-28T04:17:31;14.95;;;4.72;;
75894;SDS011;64573;50.328;15.014;2023-02-28T04:19:56;10.35;;;5.53;;
75894;SDS011;64573;50.328;15.014;2023-02-28T04:22:22;7.00;;;3.65;;
75894;SDS011;64573;50.328;15.014;2023-02-28T04:24:50;13.73;;;6.78;;
75894;SDS011;64573;50.328;15.014;2023-02-28T04:27:16;9.23;;;4.70;;
75894;SDS011;64573;50.328;15.014;2023-02-28T04:29:41;13.85;;;5.95;;
75894;SDS011;64573;50.328;15.014;2023-02-28T04:32:09;9.13;;;4.85;;
75894;SDS011;64573;50.328;15.014;2023-02-28T04:34:35;10.80;;;6.05;;
75894;SDS011;64573;50.328;15.014;2023-02-28T04:37:01;8.93;;;4.15;;
75894;SDS011;64573;50.328;15.014;2023-02-28T04:39:28;9.68;;;4.60;;
75894;SDS011;64573;50.328;15.014;2023-02-28T04:41:54;15.00;;;6.43;;
75894;SDS011;64573;50.328;15.014;2023-02-28T04:44:20;8.38;;;4.35;;
75894;SDS011;64573;50.328;15.014;2023-02-28T04:46:47;8.95;;;5.20;;
75894;SDS011;64573;50.328;15.014;2023-02-28T04:49:13;13.95;;;5.90;;
75894;SDS011;64573;50.328;15.014;2023-02-28T04:51:39;11.23;;;5.30;;
75894;SDS011;64573;50.328;15.014;2023-02-28T04:54:04;15.95;;;6.32;;
75894;SDS011;64573;50.328;15.014;2023-02-28T04:56:30;13.32;;;5.65;;
75894;SDS011;64573;50.328;15.014;2023-02-28T04:58:56;7.68;;;4.13;;
75894;SDS011;64573;50.328;15.014;2023-02-28T05:01:25;13.00;;;5.72;;
75894;SDS011;64573;50.328;15.014;2023-02-28T05:03:54;11.52;;;5.82;;
75894;SDS011;64573;50.328;15.014;2023-02-28T05:06:21;11.88;;;4.85;;
75894;SDS011;64573;50.328;15.014;2023-02-28T05:08:48;14.90;;;6.63;;
75894;SDS011;64573;50.328;15.014;2023-02-28T05:11:15;15.00;;;6.47;;
75894;SDS011;64573;50.328;15.014;2023-02-28T05:13:43;8.48;;;3.63;;
75894;SDS011;64573;50.328;15.014;2023-02-28T05:16:09;10.50;;;5.43;;
75894;SDS011;64573;50.328;15.014;2023-02-28T05:18:35;17.80;;;8.43;;
75894;SDS011;64573;50.328;15.014;2023-02-28T05:21:00;13.07;;;6.00;;
75894;SDS011;64573;50.328;15.014;2023-02-28T05:23:27;6.72;;;3.08;;
75894;SDS011;64573;50.328;15.014;2023-02-28T05:25:53;9.65;;;4.72;;
75894;SDS011;64573;50.328;15.014;2023-02-28T05:28:19;12.52;;;5.82;;
75894;SDS011;64573;50.328;15.014;2023-02-28T05:30:44;8.05;;;4.90;;
75894;SDS011;64573;50.328;15.014;2023-02-28T05:33:10;12.65;;;6.15;;
75894;SDS011;64573;50.328;15.014;2023-02-28T05:35:37;10.07;;;5.57;;
75894;SDS011;64573;50.328;15.014;2023-02-28T05:38:04;10.73;;;4.72;;
75894;SDS011;64573;50.328;15.014;2023-02-28T05:40:29;6.93;;;3.92;;
75894;SDS011;64573;50.328;15.014;2023-02-28T05:42:54;9.15;;;4.32;;
75894;SDS011;64573;50.328;15.014;2023-02-28T05:45:20;9.90;;;5.47;;
75894;SDS011;64573;50.328;15.014;2023-02-28T05:47:45;12.65;;;6.80;;
75894;SDS011;64573;50.328;15.014;2023-02-28T05:50:10;8.07;;;4.10;;
75894;SDS011;64573;50.328;15.014;2023-02-28T05:52:36;11.82;;;5.97;;
75894;SDS011;64573;50.328;15.014;2023-02-28T05:55:02;12.50;;;5.47;;
75894;SDS011;64573;50.328;15.014;2023-02-28T05:57:28;12.18;;;6.45;;
75894;SDS011;64573;50.328;15.014;2023-02-28T05:59:53;12.73;;;4.72;;
75894;SDS011;64573;50.328;15.014;2023-02-28T06:02:19;8.43;;;4.35;;
75894;SDS011;64573;50.328;15.014;2023-02-28T06:04:44;15.35;;;7.72;;
75894;SDS011;64573;50.328;15.014;2023-02-28T06:07:10;9.70;;;5.53;;
75894;SDS011;64573;50.328;15.014;2023-02-28T06:09:35;11.02;;;5.03;;
75894;SDS011;64573;50.328;15.014;2023-02-28T06:12:02;8.65;;;5.05;;
75894;SDS011;64573;50.328;15.014;2023-02-28T06:14:30;11.32;;;5.15;;
75894;SDS011;64573;50.328;15.014;2023-02-28T06:16:57;10.18;;;5.22;;
75894;SDS011;64573;50.328;15.014;2023-02-28T06:19:24;16.67;;;7.53;;
75894;SDS011;64573;50.328;15.014;2023-02-28T06:21:53;11.43;;;5.03;;
75894;SDS011;64573;50.328;15.014;2023-02-28T06:24:20;10.75;;;4.57;;
75894;SDS011;64573;50.328;15.014;2023-02-28T06:26:46;8.00;;;4.53;;
75894;SDS011;64573;50.328;15.014;2023-02-28T06:29:12;7.97;;;4.22;;
75894;SDS011;64573;50.328;15.014;2023-02-28T06:31:41;9.52;;;4.60;;
75894;SDS011;64573;50.328;15.014;2023-02-28T06:34:06;10.77;;;4.93;;
75894;SDS011;64573;50.328;15.014;2023-02-28T06:36:32;10.02;;;5.20;;
75894;SDS011;64573;50.328;15.014;2023-02-28T06:38:57;8.38;;;3.80;;
75894;SDS011;64573;50.328;15.014;2023-02-28T06:41:26;10.80;;;5.45;;
75894;SDS011;64573;50.328;15.014;2023-02-28T06:43:52;13.30;;;5.93;;
75894;SDS011;64573;50.328;15.014;2023-02-28T06:46:18;9.82;;;4.72;;
75894;SDS011;64573;50.328;15.014;2023-02-28T06:48:44;6.57;;;3.88;;
75894;SDS011;64573;50.328;15.014;2023-02-28T06:51:11;11.88;;;5.35;;
75894;SDS011;64573;50.328;15.014;2023-02-28T06:53:39;5.68;;;3.83;;
75894;SDS011;64573;50.328;15.014;2023-02-28T06:56:05;11.88;;;6.38;;
75894;SDS011;64573;50.328;15.014;2023-02-28T06:58:40;9.52;;;4.63;;
75894;SDS011;64573;50.328;15.014;2023-02-28T07:01:06;11.30;;;4.80;;
75894;SDS011;64573;50.328;15.014;2023-02-28T07:03:34;10.85;;;5.28;;
75894;SDS011;64573;50.328;15.014;2023-02-28T07:06:00;9.93;;;5.10;;
75894;SDS011;64573;50.328;15.014;2023-02-28T07:08:26;8.90;;;4.82;;
75894;SDS011;64573;50.328;15.014;2023-02-28T07:10:52;12.93;;;5.57;;
75894;SDS011;64573;50.328;15.014;2023-02-28T07:13:19;10.27;;;5.53;;
75894;SDS011;64573;50.328;15.014;2023-02-28T07:15:52;14.30;;;4.95;;
75894;SDS011;64573;50.328;15.014;2023-02-28T07:18:21;8.30;;;3.70;;
75894;SDS011;64573;50.328;15.014;2023-02-28T07:20:47;8.07;;;4.65;;
75894;SDS011;64573;50.328;15.014;2023-02-28T07:23:12;8.45;;;4.80;;
75894;SDS011;64573;50.328;15.014;2023-02-28T07:25:38;8.80;;;5.05;;
75894;SDS011;64573;50.328;15.014;2023-02-28T07:28:04;8.98;;;5.13;;
75894;SDS011;64573;50.328;15.014;2023-02-28T07:30:29;12.85;;;5.97;;
75894;SDS011;64573;50.328;15.014;2023-02-28T07:32:55;8.70;;;5.40;;
75894;SDS011;64573;50.328;15.014;2023-02-28T07:35:21;10.52;;;5.45;;
75894;SDS011;64573;50.328;15.014;2023-02-28T07:37:46;7.05;;;4.57;;
75894;SDS011;64573;50.328;15.014;2023-02-28T07:40:12;10.65;;;5.43;;
75894;SDS011;64573;50.328;15.014;2023-02-28T07:42:38;9.80;;;5.25;;
75894;SDS011;64573;50.328;15.014;2023-02-28T07:45:05;7.65;;;4.95;;
75894;SDS011;64573;50.328;15.014;2023-02-28T07:47:31;10.85;;;5.35;;
75894;SDS011;64573;50.328;15.014;2023-02-28T07:49:57;6.75;;;4.05;;
75894;SDS011;64573;50.328;15.014;2023-02-28T07:52:23;9.60;;;5.90;;
75894;SDS011;64573;50.328;15.014;2023-02-28T07:54:49;11.02;;;6.95;;
75894;SDS011;64573;50.328;15.014;2023-02-28T07:57:15;12.95;;;6.50;;
75894;SDS011;64573;50.328;15.014;2023-02-28T07:59:40;14.20;;;4.68;;
75894;SDS011;64573;50.328;15.014;2023-02-28T08:02:06;6.55;;;4.10;;
75894;SDS011;64573;50.328;15.014;2023-02-28T08:04:32;9.27;;;5.80;;
75894;SDS011;64573;50.328;15.014;2023-02-28T08:06:57;7.22;;;5.00;;
75894;SDS011;64573;50.328;15.014;2023-02-28T08:09:23;6.80;;;4.07;;
75894;SDS011;64573;50.328;15.014;2023-02-28T08:11:49;8.95;;;4.40;;
75894;SDS011;64573;50.328;15.014;2023-02-28T08:14:14;8.70;;;5.30;;
75894;SDS011;64573;50.328;15.014;2023-02-28T08:16:39;8.02;;;4.50;;
75894;SDS011;64573;50.328;15.014;2023-02-28T08:19:05;8.77;;;4.88;;
75894;SDS011;64573;50.328;15.014;2023-02-28T08:21:30;8.40;;;5.05;;
75894;SDS011;64573;50.328;15.014;2023-02-28T08:23:56;8.05;;;4.45;;
75894;SDS011;64573;50.328;15.014;2023-02-28T08:26:22;7.85;;;4.75;;
75894;SDS011;64573;50.328;15.014;2023-02-28T08:28:47;9.77;;;5.22;;
75894;SDS011;64573;50.328;15.014;2023-02-28T08:31:14;7.10;;;4.88;;
75894;SDS011;64573;50.328;15.014;2023-02-28T08:33:40;7.68;;;4.25;;
75894;SDS011;64573;50.328;15.014;2023-02-28T08:36:07;7.15;;;4.85;;
75894;SDS011;64573;50.328;15.014;2023-02-28T08:38:33;6.55;;;4.13;;
75894;SDS011;64573;50.328;15.014;2023-02-28T08:41:00;9.00;;;5.05;;
75894;SDS011;64573;50.328;15.014;2023-02-28T08:43:27;9.48;;;5.55;;
75894;SDS011;64573;50.328;15.014;2023-02-28T08:45:54;9.30;;;5.22;;
75894;SDS011;64573;50.328;15.014;2023-02-28T08:48:22;8.38;;;5.20;;
75894;SDS011;64573;50.328;15.014;2023-02-28T08:53:20;7.65;;;4.57;;
75894;SDS011;64573;50.328;15.014;2023-02-28T08:55:45;8.75;;;4.05;;
75894;SDS011;64573;50.328;15.014;2023-02-28T08:58:11;9.07;;;5.53;;
75894;SDS011;64573;50.328;15.014;2023-02-28T09:00:36;9.75;;;5.07;;
75894;SDS011;64573;50.328;15.014;2023-02-28T09:03:01;10.20;;;5.72;;
75894;SDS011;64573;50.328;15.014;2023-02-28T09:05:27;9.13;;;4.70;;
75894;SDS011;64573;50.328;15.014;2023-02-28T09:07:54;12.60;;;5.88;;
75894;SDS011;64573;50.328;15.014;2023-02-28T09:10:19;6.45;;;4.55;;
75894;SDS011;64573;50.328;15.014;2023-02-28T09:12:44;8.57;;;5.30;;
75894;SDS011;64573;50.328;15.014;2023-02-28T09:15:12;8.15;;;4.65;;
75894;SDS011;64573;50.328;15.014;2023-02-28T09:17:37;8.85;;;4.03;;
75894;SDS011;64573;50.328;15.014;2023-02-28T09:20:03;10.98;;;5.50;;
75894;SDS011;64573;50.328;15.014;2023-02-28T09:22:29;15.48;;;6.50;;
75894;SDS011;64573;50.328;15.014;2023-02-28T09:24:55;7.43;;;4.45;;
75894;SDS011;64573;50.328;15.014;2023-02-28T09:27:20;9.15;;;5.25;;
75894;SDS011;64573;50.328;15.014;2023-02-28T09:29:46;9.25;;;6.30;;
75894;SDS011;64573;50.328;15.014;2023-02-28T09:32:11;8.43;;;4.70;;
75894;SDS011;64573;50.328;15.014;2023-02-28T09:37:02;7.65;;;5.07;;
75894;SDS011;64573;50.328;15.014;2023-02-28T09:39:27;9.95;;;5.32;;
75894;SDS011;64573;50.328;15.014;2023-02-28T09:41:54;8.93;;;5.65;;
75894;SDS011;64573;50.328;15.014;2023-02-28T09:47:14;7.82;;;5.40;;
75894;SDS011;64573;50.328;15.014;2023-02-28T09:49:50;9.65;;;5.68;;
75894;SDS011;64573;50.328;15.014;2023-02-28T09:52:20;7.45;;;4.82;;
75894;SDS011;64573;50.328;15.014;2023-02-28T09:54:49;11.45;;;5.72;;
75894;SDS011;64573;50.328;15.014;2023-02-28T09:57:32;8.65;;;5.57;;
75894;SDS011;64573;50.328;15.014;2023-02-28T10:05:33;9.50;;;5.95;;
75894;SDS011;64573;50.328;15.014;2023-02-28T10:08:19;10.82;;;5.60;;
75894;SDS011;64573;50.328;15.014;2023-02-28T10:11:07;8.90;;;5.13;;
75894;SDS011;64573;50.328;15.014;2023-02-28T10:19:11;11.45;;;7.28;;
75894;SDS011;64573;50.328;15.014;2023-02-28T10:24:29;9.50;;;5.28;;
75894;SDS011;64573;50.328;15.014;2023-02-28T10:27:00;8.07;;;5.05;;
75894;SDS011;64573;50.328;15.014;2023-02-28T10:29:36;9.45;;;5.35;;
75894;SDS011;64573;50.328;15.014;2023-02-28T10:32:04;8.13;;;5.40;;
75894;SDS011;64573;50.328;15.014;2023-02-28T10:34:29;10.65;;;5.88;;
75894;SDS011;64573;50.328;15.014;2023-02-28T10:36:55;10.18;;;5.68;;
75894;SDS011;64573;50.328;15.014;2023-02-28T10:39:37;11.48;;;5.90;;
75894;SDS011;64573;50.328;15.014;2023-02-28T10:42:49;10.70;;;5.70;;
75894;SDS011;64573;50.328;15.014;2023-02-28T10:45:12;8.95;;;5.35;;
75894;SDS011;64573;50.328;15.014;2023-02-28T10:55:55;10.43;;;5.70;;
75894;SDS011;64573;50.328;15.014;2023-02-28T11:03:57;8.27;;;4.35;;
75894;SDS011;64573;50.328;15.014;2023-02-28T11:09:00;10.75;;;6.00;;
75894;SDS011;64573;50.328;15.014;2023-02-28T11:11:29;11.27;;;6.65;;
75894;SDS011;64573;50.328;15.014;2023-02-28T11:14:04;10.52;;;5.68;;
75894;SDS011;64573;50.328;15.014;2023-02-28T11:16:34;8.27;;;5.93;;
75894;SDS011;64573;50.328;15.014;2023-02-28T11:19:03;10.18;;;5.88;;
75894;SDS011;64573;50.328;15.014;2023-02-28T11:21:35;8.40;;;5.50;;
75894;SDS011;64573;50.328;15.014;2023-02-28T11:24:18;10.18;;;6.15;;
75894;SDS011;64573;50.328;15.014;2023-02-28T11:26:42;10.35;;;6.40;;
75894;SDS011;64573;50.328;15.014;2023-02-28T11:34:22;10.15;;;6.07;;
75894;SDS011;64573;50.328;15.014;2023-02-28T11:36:50;8.40;;;5.25;;
75894;SDS011;64573;50.328;15.014;2023-02-28T11:39:18;11.25;;;5.50;;
75894;SDS011;64573;50.328;15.014;2023-02-28T11:41:52;8.85;;;6.00;;
75894;SDS011;64573;50.328;15.014;2023-02-28T11:55:26;8.48;;;6.07;;
75894;SDS011;64573;50.328;15.014;2023-02-28T12:13:58;12.55;;;6.93;;
75894;SDS011;64573;50.328;15.014;2023-02-28T12:19:21;10.98;;;6.10;;
75894;SDS011;64573;50.328;15.014;2023-02-28T12:27:06;11.05;;;6.57;;
75894;SDS011;64573;50.328;15.014;2023-02-28T12:29:43;11.60;;;6.68;;
75894;SDS011;64573;50.328;15.014;2023-02-28T12:32:23;11.75;;;6.43;;
75894;SDS011;64573;50.328;15.014;2023-02-28T12:34:57;10.88;;;6.50;;
75894;SDS011;64573;50.328;15.014;2023-02-28T12:40:02;10.82;;;6.03;;
75894;SDS011;64573;50.328;15.014;2023-02-28T12:42:30;13.15;;;7.35;;
75894;SDS011;64573;50.328;15.014;2023-02-28T12:45:03;10.23;;;6.70;;
75894;SDS011;64573;50.328;15.014;2023-02-28T13:03:10;11.10;;;6.88;;
75894;SDS011;64573;50.328;15.014;2023-02-28T13:05:44;12.68;;;6.90;;
75894;SDS011;64573;50.328;15.014;2023-02-28T13:10:52;11.30;;;6.88;;
75894;SDS011;64573;50.328;15.014;2023-02-28T13:13:24;11.32;;;6.38;;
75894;SDS011;64573;50.328;15.014;2023-02-28T13:18:35;16.90;;;7.05;;
75894;SDS011;64573;50.328;15.014;2023-02-28T13:21:04;9.32;;;5.55;;
75894;SDS011;64573;50.328;15.014;2023-02-28T13:26:04;12.43;;;7.20;;
75894;SDS011;64573;50.328;15.014;2023-02-28T13:51:47;14.02;;;7.85;;
75894;SDS011;64573;50.328;15.014;2023-02-28T14:11:51;14.75;;;8.38;;
75894;SDS011;64573;50.328;15.014;2023-02-28T14:17:07;12.25;;;7.35;;
75894;SDS011;64573;50.328;15.014;2023-02-28T14:19:37;14.32;;;8.23;;
75894;SDS011;64573;50.328;15.014;2023-02-28T14:22:16;13.98;;;8.18;;
75894;SDS011;64573;50.328;15.014;2023-02-28T14:38:21;14.38;;;8.30;;
75894;SDS011;64573;50.328;15.014;2023-02-28T14:43:20;13.93;;;8.60;;
75894;SDS011;64573;50.328;15.014;2023-02-28T14:45:57;20.98;;;7.93;;
75894;SDS011;64573;50.328;15.014;2023-02-28T14:48:24;18.08;;;10.52;;
75894;SDS011;64573;50.328;15.014;2023-02-28T14:50:53;13.48;;;7.57;;
75894;SDS011;64573;50.328;15.014;2023-02-28T14:53:21;14.48;;;8.43;;
75894;SDS011;64573;50.328;15.014;2023-02-28T14:55:48;17.25;;;9.20;;
75894;SDS011;64573;50.328;15.014;2023-02-28T15:05:57;15.15;;;8.93;;
75894;SDS011;64573;50.328;15.014;2023-02-28T15:08:24;16.33;;;8.40;;
75894;SDS011;64573;50.328;15.014;2023-02-28T15:13:16;14.77;;;8.93;;
75894;SDS011;64573;50.328;15.014;2023-02-28T15:31:18;15.05;;;8.70;;
75894;SDS011;64573;50.328;15.014;2023-02-28T15:33:47;17.33;;;9.02;;
75894;SDS011;64573;50.328;15.014;2023-02-28T15:36:13;16.27;;;9.60;;
75894;SDS011;64573;50.328;15.014;2023-02-28T15:38:40;17.08;;;8.68;;
75894;SDS011;64573;50.328;15.014;2023-02-28T15:41:20;13.48;;;8.90;;
75894;SDS011;64573;50.328;15.014;2023-02-28T15:43:38;16.42;;;8.40;;
75894;SDS011;64573;50.328;15.014;2023-02-28T15:48:36;14.75;;;9.30;;
75894;SDS011;64573;50.328;15.014;2023-02-28T15:51:08;19.00;;;9.43;;
75894;SDS011;64573;50.328;15.014;2023-02-28T16:01:27;16.27;;;9.00;;
75894;SDS011;64573;50.328;15.014;2023-02-28T16:16:43;16.20;;;9.02;;
75894;SDS011;64573;50.328;15.014;2023-02-28T16:19:10;19.95;;;9.40;;
75894;SDS011;64573;50.328;15.014;2023-02-28T16:24:11;17.75;;;9.38;;
75894;SDS011;64573;50.328;15.014;2023-02-28T16:26:38;17.38;;;8.98;;
75894;SDS011;64573;50.328;15.014;2023-02-28T16:34:06;14.82;;;8.43;;
75894;SDS011;64573;50.328;15.014;2023-02-28T16:36:31;15.60;;;8.88;;
75894;SDS011;64573;50.328;15.014;2023-02-28T16:38:57;14.77;;;8.18;;
75894;SDS011;64573;50.328;15.014;2023-02-28T16:41:23;16.65;;;8.57;;
75894;SDS011;64573;50.328;15.014;2023-02-28T16:43:51;20.80;;;8.82;;
75894;SDS011;64573;50.328;15.014;2023-02-28T16:46:18;18.27;;;9.88;;
75894;SDS011;64573;50.328;15.014;2023-02-28T16:48:45;18.08;;;10.40;;
75894;SDS011;64573;50.328;15.014;2023-02-28T16:51:13;26.92;;;13.73;;
75894;SDS011;64573;50.328;15.014;2023-02-28T16:53:40;17.45;;;9.25;;
75894;SDS011;64573;50.328;15.014;2023-02-28T16:58:41;16.85;;;8.32;;
75894;SDS011;64573;50.328;15.014;2023-02-28T17:01:07;17.52;;;9.82;;
75894;SDS011;64573;50.328;15.014;2023-02-28T17:03:32;19.85;;;9.45;;
75894;SDS011;64573;50.328;15.014;2023-02-28T17:05:57;14.38;;;7.97;;
75894;SDS011;64573;50.328;15.014;2023-02-28T17:08:23;14.05;;;7.63;;
75894;SDS011;64573;50.328;15.014;2023-02-28T17:10:48;14.25;;;7.30;;
75894;SDS011;64573;50.328;15.014;2023-02-28T17:15:46;39.95;;;12.05;;
75894;SDS011;64573;50.328;15.014;2023-02-28T17:18:17;23.30;;;10.18;;
75894;SDS011;64573;50.328;15.014;2023-02-28T17:20:46;19.35;;;10.70;;
75894;SDS011;64573;50.328;15.014;2023-02-28T17:23:12;23.77;;;13.10;;
75894;SDS011;64573;50.328;15.014;2023-02-28T17:25:37;23.98;;;10.77;;
75894;SDS011;64573;50.328;15.014;2023-02-28T17:28:03;17.10;;;8.13;;
75894;SDS011;64573;50.328;15.014;2023-02-28T17:30:33;20.13;;;8.82;;
75894;SDS011;64573;50.328;15.014;2023-02-28T17:32:59;23.85;;;11.25;;
75894;SDS011;64573;50.328;15.014;2023-02-28T17:35:25;19.75;;;10.35;;
75894;SDS011;64573;50.328;15.014;2023-02-28T17:37:51;26.65;;;12.48;;
75894;SDS011;64573;50.328;15.014;2023-02-28T17:40:18;28.25;;;12.15;;
75894;SDS011;64573;50.328;15.014;2023-02-28T17:45:20;33.03;;;17.77;;
75894;SDS011;64573;50.328;15.014;2023-02-28T17:50:14;20.17;;;9.63;;
75894;SDS011;64573;50.328;15.014;2023-02-28T17:52:43;21.00;;;10.60;;
75894;SDS011;64573;50.328;15.014;2023-02-28T17:55:09;21.33;;;10.13;;
75894;SDS011;64573;50.328;15.014;2023-02-28T17:57:35;19.25;;;9.57;;
75894;SDS011;64573;50.328;15.014;2023-02-28T18:00:00;23.05;;;11.48;;
75894;SDS011;64573;50.328;15.014;2023-02-28T18:02:30;22.75;;;9.98;;
75894;SDS011;64573;50.328;15.014;2023-02-28T18:04:55;19.55;;;9.65;;
75894;SDS011;64573;50.328;15.014;2023-02-28T18:07:22;24.83;;;10.40;;
75894;SDS011;64573;50.328;15.014;2023-02-28T18:09:49;24.60;;;11.35;;
75894;SDS011;64573;50.328;15.014;2023-02-28T18:12:14;26.25;;;11.10;;
75894;SDS011;64573;50.328;15.014;2023-02-28T18:14:39;24.00;;;11.38;;
75894;SDS011;64573;50.328;15.014;2023-02-28T18:17:05;24.42;;;10.95;;
75894;SDS011;64573;50.328;15.014;2023-02-28T18:19:30;26.40;;;11.35;;
75894;SDS011;64573;50.328;15.014;2023-02-28T18:21:56;20.38;;;9.73;;
75894;SDS011;64573;50.328;15.014;2023-02-28T18:24:22;27.33;;;11.13;;
75894;SDS011;64573;50.328;15.014;2023-02-28T18:26:48;22.40;;;10.27;;
75894;SDS011;64573;50.328;15.014;2023-02-28T18:29:16;22.60;;;10.18;;
75894;SDS011;64573;50.328;15.014;2023-02-28T18:31:44;27.33;;;11.93;;
75894;SDS011;64573;50.328;15.014;2023-02-28T18:34:09;26.58;;;11.32;;
75894;SDS011;64573;50.328;15.014;2023-02-28T18:36:35;25.30;;;11.07;;
75894;SDS011;64573;50.328;15.014;2023-02-28T18:39:01;23.33;;;11.30;;
75894;SDS011;64573;50.328;15.014;2023-02-28T18:41:26;23.42;;;10.48;;
75894;SDS011;64573;50.328;15.014;2023-02-28T18:43:52;19.70;;;9.57;;
75894;SDS011;64573;50.328;15.014;2023-02-28T18:46:18;16.83;;;8.60;;
75894;SDS011;64573;50.328;15.014;2023-02-28T18:48:45;25.02;;;11.43;;
75894;SDS011;64573;50.328;15.014;2023-02-28T18:51:12;21.40;;;10.32;;
75894;SDS011;64573;50.328;15.014;2023-02-28T18:53:43;22.38;;;9.98;;
75894;SDS011;64573;50.328;15.014;2023-02-28T18:56:13;20.95;;;10.65;;